sensor_id;sensor_type;location;lat;lon;timestamp;pressure;altitude;pressure_sealevel;temperature;humidity
13080;BME280;6606;49.154;9.280;2024-01-10T00:00:16;100682.03;;;-5.51;100.00
13080;BME280;6606;49.154;9.280;2024-01-10T00:02:58;100678.44;;;-5.58;100.00
13080;BME280;6606;49.154;9.280;2024-01-10T00:05:39;100675.06;;;-5.55;100.00
13080;BME280;6606;49.154;9.280;2024-01-10T00:08:21;100674.31;;;-5.50;100.00
13080;BME280;6606;49.154;9.280;2024-01-10T00:11:03;100672.75;;;-5.43;100.00
13080;BME280;6606;49.154;9.280;2024-01-10T00:13:45;100674.44;;;-5.45;100.00
13080;BME280;6606;49.154;9.280;2024-01-10T00:16:28;100674.44;;;-5.45;100.00
13080;BME280;6606;49.154;9.280;2024-01-10T00:19:10;100675.53;;;-5.35;100.00
13080;BME280;6606;49.154;9.280;2024-01-10T00:21:51;100673.06;;;-5.32;100.00
13080;BME280;6606;49.154;9.280;2024-01-10T00:24:33;100662.78;;;-5.28;100.00
13080;BME280;6606;49.154;9.280;2024-01-10T00:27:15;100667.03;;;-5.30;100.00
13080;BME280;6606;49.154;9.280;2024-01-10T00:29:57;100663.75;;;-5.24;100.00
13080;BME280;6606;49.154;9.280;2024-01-10T00:32:40;100659.50;;;-5.20;100.00
13080;BME280;6606;49.154;9.280;2024-01-10T00:35:22;100659.44;;;-5.23;100.00
13080;BME280;6606;49.154;9.280;2024-01-10T00:38:04;100663.50;;;-5.33;100.00
13080;BME280;6606;49.154;9.280;2024-01-10T00:40:45;100656.69;;;-5.30;100.00
13080;BME280;6606;49.154;9.280;2024-01-10T00:43:34;100652.50;;;-5.24;100.00
13080;BME280;6606;49.154;9.280;2024-01-10T00:46:16;100654.53;;;-5.11;100.00
13080;BME280;6606;49.154;9.280;2024-01-10T00:48:59;100657.31;;;-5.03;100.00
13080;BME280;6606;49.154;9.280;2024-01-10T00:51:40;100658.03;;;-5.11;100.00
13080;BME280;6606;49.154;9.280;2024-01-10T00:54:22;100654.53;;;-5.11;100.00
13080;BME280;6606;49.154;9.280;2024-01-10T00:57:04;100654.09;;;-5.30;100.00
13080;BME280;6606;49.154;9.280;2024-01-10T00:59:46;100649.91;;;-5.24;100.00
13080;BME280;6606;49.154;9.280;2024-01-10T01:02:27;100664.56;;;-5.26;100.00
13080;BME280;6606;49.154;9.280;2024-01-10T01:05:10;100663.66;;;-5.27;100.00
13080;BME280;6606;49.154;9.280;2024-01-10T01:07:52;100668.84;;;-5.27;100.00
13080;BME280;6606;49.154;9.280;2024-01-10T01:10:34;100677.44;;;-5.28;100.00
13080;BME280;6606;49.154;9.280;2024-01-10T01:13:15;100661.34;;;-5.16;100.00
13080;BME280;6606;49.154;9.280;2024-01-10T01:15:57;100671.53;;;-5.22;100.00
13080;BME280;6606;49.154;9.280;2024-01-10T01:18:39;100672.41;;;-5.23;100.00
13080;BME280;6606;49.154;9.280;2024-01-10T01:21:24;100682.88;;;-5.17;100.00
13080;BME280;6606;49.154;9.280;2024-01-10T01:24:05;100672.66;;;-5.11;100.00
13080;BME280;6606;49.154;9.280;2024-01-10T01:26:47;100678.13;;;-5.00;100.00
13080;BME280;6606;49.154;9.280;2024-01-10T01:29:29;100677.16;;;-5.04;100.00
13080;BME280;6606;49.154;9.280;2024-01-10T01:32:10;100674.69;;;-4.99;100.00
13080;BME280;6606;49.154;9.280;2024-01-10T01:34:52;100663.59;;;-4.94;100.00
13080;BME280;6606;49.154;9.280;2024-01-10T01:37:35;100673.66;;;-5.08;100.00
13080;BME280;6606;49.154;9.280;2024-01-10T01:40:18;100667.03;;;-4.95;100.00
13080;BME280;6606;49.154;9.280;2024-01-10T01:42:59;100667.03;;;-4.95;100.00
13080;BME280;6606;49.154;9.280;2024-01-10T01:45:41;100668.81;;;-4.92;100.00
13080;BME280;6606;49.154;9.280;2024-01-10T01:48:24;100664.59;;;-4.89;100.00
13080;BME280;6606;49.154;9.280;2024-01-10T01:51:07;100668.66;;;-5.00;100.00
13080;BME280;6606;49.154;9.280;2024-01-10T01:53:50;100664.28;;;-5.01;100.00
13080;BME280;6606;49.154;9.280;2024-01-10T01:56:32;100665.13;;;-5.02;100.00
13080;BME280;6606;49.154;9.280;2024-01-10T01:59:14;100664.34;;;-4.98;100.00
13080;BME280;6606;49.154;9.280;2024-01-10T02:01:55;100658.34;;;-4.97;100.00
13080;BME280;6606;49.154;9.280;2024-01-10T02:04:37;100661.75;;;-4.98;100.00
13080;BME280;6606;49.154;9.280;2024-01-10T02:07:19;100658.28;;;-5.00;100.00
13080;BME280;6606;49.154;9.280;2024-01-10T02:10:02;100661.69;;;-5.02;100.00
13080;BME280;6606;49.154;9.280;2024-01-10T02:12:44;100655.72;;;-4.98;100.00
13080;BME280;6606;49.154;9.280;2024-01-10T02:15:26;100659.91;;;-5.03;100.00
13080;BME280;6606;49.154;9.280;2024-01-10T02:18:08;100651.56;;;-4.92;100.00
13080;BME280;6606;49.154;9.280;2024-01-10T02:20:52;100650.94;;;-4.81;100.00
13080;BME280;6606;49.154;9.280;2024-01-10T02:23:34;100656.13;;;-4.81;100.00
13080;BME280;6606;49.154;9.280;2024-01-10T02:26:17;100652.72;;;-4.79;100.00
13080;BME280;6606;49.154;9.280;2024-01-10T02:28:59;100650.22;;;-4.74;100.00
13080;BME280;6606;49.154;9.280;2024-01-10T02:31:40;100639.94;;;-4.71;100.00
13080;BME280;6606;49.154;9.280;2024-01-10T02:34:22;100644.91;;;-4.80;100.00
13080;BME280;6606;49.154;9.280;2024-01-10T02:37:04;100643.78;;;-4.92;100.00
13080;BME280;6606;49.154;9.280;2024-01-10T02:39:45;100646.56;;;-4.82;100.00
13080;BME280;6606;49.154;9.280;2024-01-10T02:42:29;100640.66;;;-4.77;100.00
13080;BME280;6606;49.154;9.280;2024-01-10T02:45:11;100644.03;;;-4.81;100.00
13080;BME280;6606;49.154;9.280;2024-01-10T02:47:52;100637.97;;;-4.81;100.00
13080;BME280;6606;49.154;9.280;2024-01-10T02:50:34;100636.44;;;-4.73;100.00
13080;BME280;6606;49.154;9.280;2024-01-10T02:53:18;100632.28;;;-4.65;99.09
13080;BME280;6606;49.154;9.280;2024-01-10T02:56:00;100637.59;;;-4.59;100.00
13080;BME280;6606;49.154;9.280;2024-01-10T02:58:43;100639.22;;;-4.64;99.10
13080;BME280;6606;49.154;9.280;2024-01-10T03:01:25;100622.94;;;-4.57;99.82
13080;BME280;6606;49.154;9.280;2024-01-10T03:04:06;100619.50;;;-4.56;98.11
13080;BME280;6606;49.154;9.280;2024-01-10T03:06:48;100624.56;;;-4.62;93.41
13080;BME280;6606;49.154;9.280;2024-01-10T03:09:30;100626.41;;;-4.56;92.96
13080;BME280;6606;49.154;9.280;2024-01-10T03:12:11;100633.09;;;-4.66;93.56
13080;BME280;6606;49.154;9.280;2024-01-10T03:14:54;100634.06;;;-4.63;92.70
13080;BME280;6606;49.154;9.280;2024-01-10T03:17:36;100627.88;;;-4.69;95.44
13080;BME280;6606;49.154;9.280;2024-01-10T03:20:18;100622.50;;;-4.78;97.44
13080;BME280;6606;49.154;9.280;2024-01-10T03:23:00;100619.84;;;-4.81;96.06
13080;BME280;6606;49.154;9.280;2024-01-10T03:25:42;100619.84;;;-4.80;97.35
13080;BME280;6606;49.154;9.280;2024-01-10T03:28:23;100622.44;;;-4.81;99.39
13080;BME280;6606;49.154;9.280;2024-01-10T03:31:07;100610.31;;;-4.82;100.00
13080;BME280;6606;49.154;9.280;2024-01-10T03:33:48;100612.06;;;-4.81;96.82
13080;BME280;6606;49.154;9.280;2024-01-10T03:36:30;100613.38;;;-5.00;100.00
13080;BME280;6606;49.154;9.280;2024-01-10T03:39:12;100618.00;;;-4.86;100.00
13080;BME280;6606;49.154;9.280;2024-01-10T03:41:54;100616.34;;;-4.84;100.00
13080;BME280;6606;49.154;9.280;2024-01-10T03:44:35;100606.72;;;-4.89;98.62
13080;BME280;6606;49.154;9.280;2024-01-10T03:47:18;100616.16;;;-4.91;99.36
13080;BME280;6606;49.154;9.280;2024-01-10T03:50:00;100623.19;;;-4.86;99.68
13080;BME280;6606;49.154;9.280;2024-01-10T03:52:42;100610.25;;;-4.86;100.00
13080;BME280;6606;49.154;9.280;2024-01-10T03:55:23;100616.44;;;-4.79;99.31
13080;BME280;6606;49.154;9.280;2024-01-10T03:58:05;100607.69;;;-4.84;98.79
13080;BME280;6606;49.154;9.280;2024-01-10T04:00:47;100604.25;;;-4.83;100.00
13080;BME280;6606;49.154;9.280;2024-01-10T04:03:30;100598.13;;;-4.87;100.00
13080;BME280;6606;49.154;9.280;2024-01-10T04:06:12;100594.50;;;-4.95;100.00
13080;BME280;6606;49.154;9.280;2024-01-10T04:08:53;100601.13;;;-5.08;100.00
13080;BME280;6606;49.154;9.280;2024-01-10T04:11:35;100600.81;;;-5.21;100.00
13080;BME280;6606;49.154;9.280;2024-01-10T04:14:17;100596.63;;;-5.15;100.00
13080;BME280;6606;49.154;9.280;2024-01-10T04:16:59;100603.56;;;-5.14;100.00
13080;BME280;6606;49.154;9.280;2024-01-10T04:19:43;100601.81;;;-5.15;100.00
13080;BME280;6606;49.154;9.280;2024-01-10T04:22:24;100600.94;;;-5.15;100.00
13080;BME280;6606;49.154;9.280;2024-01-10T04:25:07;100598.53;;;-5.08;100.00
13080;BME280;6606;49.154;9.280;2024-01-10T04:27:49;100598.66;;;-5.03;100.00
13080;BME280;6606;49.154;9.280;2024-01-10T04:30:31;100600.34;;;-5.03;100.00
13080;BME280;6606;49.154;9.280;2024-01-10T04:33:13;100596.25;;;-4.94;100.00
13080;BME280;6606;49.154;9.280;2024-01-10T04:35:56;100598.78;;;-4.95;100.00
13080;BME280;6606;49.154;9.280;2024-01-10T04:38:38;100595.31;;;-4.96;100.00
13080;BME280;6606;49.154;9.280;2024-01-10T04:41:20;100598.78;;;-4.95;100.00
13080;BME280;6606;49.154;9.280;2024-01-10T04:44:02;100599.75;;;-4.92;100.00
13080;BME280;6606;49.154;9.280;2024-01-10T04:46:44;100610.06;;;-4.95;100.00
13080;BME280;6606;49.154;9.280;2024-01-10T04:49:26;100609.09;;;-4.98;100.00
13080;BME280;6606;49.154;9.280;2024-01-10T04:52:09;100611.84;;;-4.92;100.00
13080;BME280;6606;49.154;9.280;2024-01-10T04:54:50;100602.44;;;-4.87;100.00
13080;BME280;6606;49.154;9.280;2024-01-10T04:57:32;100603.56;;;-4.74;100.00
13080;BME280;6606;49.154;9.280;2024-01-10T05:00:14;100607.88;;;-4.76;100.00
13080;BME280;6606;49.154;9.280;2024-01-10T05:02:56;100596.91;;;-4.63;100.00
13080;BME280;6606;49.154;9.280;2024-01-10T05:05:38;100603.09;;;-4.56;100.00
13080;BME280;6606;49.154;9.280;2024-01-10T05:08:21;100602.09;;;-4.63;100.00
13080;BME280;6606;49.154;9.280;2024-01-10T05:11:03;100591.59;;;-4.69;100.00
13080;BME280;6606;49.154;9.280;2024-01-10T05:13:46;100600.66;;;-4.49;100.00
13080;BME280;6606;49.154;9.280;2024-01-10T05:16:28;100602.44;;;-4.46;100.00
13080;BME280;6606;49.154;9.280;2024-01-10T05:19:10;100608.59;;;-4.41;100.00
13080;BME280;6606;49.154;9.280;2024-01-10T05:21:52;100597.47;;;-4.35;100.00
13080;BME280;6606;49.154;9.280;2024-01-10T05:24:35;100595.78;;;-4.33;100.00
13080;BME280;6606;49.154;9.280;2024-01-10T05:27:17;100599.50;;;-4.21;100.00
13080;BME280;6606;49.154;9.280;2024-01-10T05:29:59;100597.72;;;-4.23;100.00
13080;BME280;6606;49.154;9.280;2024-01-10T05:32:41;100601.84;;;-4.33;100.00
13080;BME280;6606;49.154;9.280;2024-01-10T05:35:22;100593.41;;;-4.23;100.00
13080;BME280;6606;49.154;9.280;2024-01-10T05:38:06;100602.91;;;-4.23;100.00
13080;BME280;6606;49.154;9.280;2024-01-10T05:40:49;100606.22;;;-4.30;100.00
13080;BME280;6606;49.154;9.280;2024-01-10T05:43:32;100612.31;;;-4.28;100.00
13080;BME280;6606;49.154;9.280;2024-01-10T05:46:13;100606.16;;;-4.33;100.00
13080;BME280;6606;49.154;9.280;2024-01-10T05:48:56;100601.19;;;-4.21;100.00
13080;BME280;6606;49.154;9.280;2024-01-10T05:51:38;100608.09;;;-4.23;100.00
13080;BME280;6606;49.154;9.280;2024-01-10T05:54:19;100599.56;;;-4.16;100.00
13080;BME280;6606;49.154;9.280;2024-01-10T05:57:03;100601.44;;;-4.09;100.00
13080;BME280;6606;49.154;9.280;2024-01-10T05:59:45;100597.94;;;-4.11;100.00
13080;BME280;6606;49.154;9.280;2024-01-10T06:02:27;100595.88;;;-4.29;100.00
13080;BME280;6606;49.154;9.280;2024-01-10T06:05:09;100601.34;;;-4.13;100.00
13080;BME280;6606;49.154;9.280;2024-01-10T06:07:51;100599.50;;;-4.21;100.00
13080;BME280;6606;49.154;9.280;2024-01-10T06:10:33;100609.81;;;-4.22;100.00
13080;BME280;6606;49.154;9.280;2024-01-10T06:13:16;100605.44;;;-4.26;100.00
13080;BME280;6606;49.154;9.280;2024-01-10T06:15:58;100603.97;;;-4.12;100.00
13080;BME280;6606;49.154;9.280;2024-01-10T06:18:39;100595.41;;;-4.08;100.00
13080;BME280;6606;49.154;9.280;2024-01-10T06:21:21;100599.69;;;-4.10;100.00
13080;BME280;6606;49.154;9.280;2024-01-10T06:24:03;100608.19;;;-4.17;100.00
13080;BME280;6606;49.154;9.280;2024-01-10T06:26:45;100602.84;;;-4.26;100.00
13080;BME280;6606;49.154;9.280;2024-01-10T06:29:28;100604.38;;;-4.34;100.00
13080;BME280;6606;49.154;9.280;2024-01-10T06:32:10;100597.56;;;-4.31;100.00
13080;BME280;6606;49.154;9.280;2024-01-10T06:34:52;100606.53;;;-4.13;100.00
13080;BME280;6606;49.154;9.280;2024-01-10T06:37:33;100606.47;;;-4.18;100.00
13080;BME280;6606;49.154;9.280;2024-01-10T06:40:15;100604.59;;;-4.25;100.00
13080;BME280;6606;49.154;9.280;2024-01-10T06:42:57;100606.31;;;-4.24;100.00
13080;BME280;6606;49.154;9.280;2024-01-10T06:45:41;100612.66;;;-4.10;100.00
13080;BME280;6606;49.154;9.280;2024-01-10T06:48:23;100616.28;;;-4.02;100.00
13080;BME280;6606;49.154;9.280;2024-01-10T06:51:09;100612.81;;;-4.01;100.00
13080;BME280;6606;49.154;9.280;2024-01-10T06:53:51;100611.81;;;-4.09;100.00
13080;BME280;6606;49.154;9.280;2024-01-10T06:56:33;100612.72;;;-4.05;100.00
13080;BME280;6606;49.154;9.280;2024-01-10T06:59:15;100619.28;;;-4.24;100.00
13080;BME280;6606;49.154;9.280;2024-01-10T07:01:58;100620.13;;;-4.25;100.00
13080;BME280;6606;49.154;9.280;2024-01-10T07:04:42;100623.81;;;-4.14;100.00
13080;BME280;6606;49.154;9.280;2024-01-10T07:07:23;100623.81;;;-4.14;100.00
13080;BME280;6606;49.154;9.280;2024-01-10T07:10:05;100627.41;;;-4.06;100.00
13080;BME280;6606;49.154;9.280;2024-01-10T07:12:47;100625.78;;;-4.02;100.00
13080;BME280;6606;49.154;9.280;2024-01-10T07:15:29;100630.13;;;-4.01;100.00
13080;BME280;6606;49.154;9.280;2024-01-10T07:18:12;100633.56;;;-4.02;100.00
13080;BME280;6606;49.154;9.280;2024-01-10T07:20:54;100636.31;;;-3.94;100.00
13080;BME280;6606;49.154;9.280;2024-01-10T07:23:36;100633.09;;;-3.81;100.00
13080;BME280;6606;49.154;9.280;2024-01-10T07:26:18;100638.16;;;-3.87;100.00
13080;BME280;6606;49.154;9.280;2024-01-10T07:29:00;100646.22;;;-3.72;100.00
13080;BME280;6606;49.154;9.280;2024-01-10T07:31:42;100647.13;;;-3.70;100.00
13080;BME280;6606;49.154;9.280;2024-01-10T07:34:26;100648.59;;;-3.84;100.00
13080;BME280;6606;49.154;9.280;2024-01-10T07:37:07;100652.94;;;-3.82;100.00
13080;BME280;6606;49.154;9.280;2024-01-10T07:39:51;100648.72;;;-3.77;100.00
13080;BME280;6606;49.154;9.280;2024-01-10T07:42:34;100652.09;;;-3.82;100.00
13080;BME280;6606;49.154;9.280;2024-01-10T07:45:16;100649.81;;;-3.64;100.00
13080;BME280;6606;49.154;9.280;2024-01-10T07:47:58;100656.66;;;-3.69;100.00
13080;BME280;6606;49.154;9.280;2024-01-10T07:50:41;100663.00;;;-3.53;100.00
13080;BME280;6606;49.154;9.280;2024-01-10T07:53:23;100668.38;;;-3.44;100.00
13080;BME280;6606;49.154;9.280;2024-01-10T07:56:07;100664.19;;;-3.36;100.00
13080;BME280;6606;49.154;9.280;2024-01-10T07:58:48;100671.19;;;-3.30;100.00
13080;BME280;6606;49.154;9.280;2024-01-10T08:01:32;100668.50;;;-3.36;100.00
13080;BME280;6606;49.154;9.280;2024-01-10T08:04:14;100664.94;;;-3.41;100.00
13080;BME280;6606;49.154;9.280;2024-01-10T08:06:57;100666.59;;;-3.45;100.00
13080;BME280;6606;49.154;9.280;2024-01-10T08:09:39;100656.06;;;-3.53;100.00
13080;BME280;6606;49.154;9.280;2024-01-10T08:12:20;100666.88;;;-3.30;100.00
13080;BME280;6606;49.154;9.280;2024-01-10T08:15:03;100662.97;;;-3.04;100.00
13080;BME280;6606;49.154;9.280;2024-01-10T08:17:45;100658.03;;;-2.86;100.00
13080;BME280;6606;49.154;9.280;2024-01-10T08:20:26;100662.53;;;-2.74;99.37
13080;BME280;6606;49.154;9.280;2024-01-10T08:23:13;100662.41;;;-2.82;99.41
13080;BME280;6606;49.154;9.280;2024-01-10T08:25:54;100660.09;;;-2.64;98.49
13080;BME280;6606;49.154;9.280;2024-01-10T08:28:37;100666.16;;;-2.65;95.33
13080;BME280;6606;49.154;9.280;2024-01-10T08:31:19;100660.16;;;-2.59;96.28
13080;BME280;6606;49.154;9.280;2024-01-10T08:34:01;100669.00;;;-2.45;96.39
13080;BME280;6606;49.154;9.280;2024-01-10T08:36:43;100673.00;;;-2.70;94.21
13080;BME280;6606;49.154;9.280;2024-01-10T08:39:26;100674.56;;;-2.81;100.00
13080;BME280;6606;49.154;9.280;2024-01-10T08:42:11;100685.28;;;-2.59;96.92
13080;BME280;6606;49.154;9.280;2024-01-10T08:44:53;100689.94;;;-2.34;92.72
13080;BME280;6606;49.154;9.280;2024-01-10T08:47:36;100687.50;;;-2.25;91.99
13080;BME280;6606;49.154;9.280;2024-01-10T08:50:18;100683.09;;;-2.30;91.40
13080;BME280;6606;49.154;9.280;2024-01-10T08:53:00;100686.44;;;-2.37;91.24
13080;BME280;6606;49.154;9.280;2024-01-10T08:55:45;100687.22;;;-2.46;92.90
13080;BME280;6606;49.154;9.280;2024-01-10T08:58:27;100693.78;;;-2.73;98.70
13080;BME280;6606;49.154;9.280;2024-01-10T09:01:09;100694.78;;;-2.60;96.45
13080;BME280;6606;49.154;9.280;2024-01-10T09:03:51;100702.56;;;-2.65;97.02
13080;BME280;6606;49.154;9.280;2024-01-10T09:06:33;100699.16;;;-2.57;95.01
13080;BME280;6606;49.154;9.280;2024-01-10T09:09:17;100693.22;;;-2.50;95.12
13080;BME280;6606;49.154;9.280;2024-01-10T09:12:02;100688.88;;;-2.50;92.80
13080;BME280;6606;49.154;9.280;2024-01-10T09:14:44;100685.78;;;-2.23;91.70
13080;BME280;6606;49.154;9.280;2024-01-10T09:17:26;100692.47;;;-1.68;87.59
13080;BME280;6606;49.154;9.280;2024-01-10T09:20:09;100695.28;;;-1.50;82.14
13080;BME280;6606;49.154;9.280;2024-01-10T09:22:51;100699.88;;;-1.24;81.51
13080;BME280;6606;49.154;9.280;2024-01-10T09:25:32;100700.81;;;-1.16;81.85
13080;BME280;6606;49.154;9.280;2024-01-10T09:28:16;100695.81;;;-0.89;77.28
13080;BME280;6606;49.154;9.280;2024-01-10T09:30:57;100696.66;;;-0.91;75.41
13080;BME280;6606;49.154;9.280;2024-01-10T09:33:39;100696.81;;;-0.74;76.08
13080;BME280;6606;49.154;9.280;2024-01-10T09:36:21;100696.13;;;-0.44;72.79
13080;BME280;6606;49.154;9.280;2024-01-10T09:39:05;100689.25;;;-0.28;67.97
13080;BME280;6606;49.154;9.280;2024-01-10T09:41:53;100701.41;;;-0.30;68.35
13080;BME280;6606;49.154;9.280;2024-01-10T09:44:36;100697.19;;;-0.04;64.26
13080;BME280;6606;49.154;9.280;2024-01-10T09:47:20;100693.69;;;-0.13;65.19
13080;BME280;6606;49.154;9.280;2024-01-10T09:50:02;100700.47;;;-0.42;65.99
13080;BME280;6606;49.154;9.280;2024-01-10T09:52:50;100699.66;;;-0.34;67.97
13080;BME280;6606;49.154;9.280;2024-01-10T09:55:34;100697.91;;;-0.34;65.89
13080;BME280;6606;49.154;9.280;2024-01-10T09:58:17;100692.63;;;-0.43;64.85
13080;BME280;6606;49.154;9.280;2024-01-10T10:01:00;100696.16;;;-0.36;67.37
13080;BME280;6606;49.154;9.280;2024-01-10T10:03:45;100694.41;;;-0.37;67.60
13080;BME280;6606;49.154;9.280;2024-01-10T10:06:27;100686.63;;;-0.31;66.35
13080;BME280;6606;49.154;9.280;2024-01-10T10:09:10;100691.06;;;-0.12;66.42
13080;BME280;6606;49.154;9.280;2024-01-10T10:11:53;100690.94;;;-0.39;67.11
13080;BME280;6606;49.154;9.280;2024-01-10T10:14:35;100695.41;;;-0.18;65.05
13080;BME280;6606;49.154;9.280;2024-01-10T10:17:18;100682.44;;;0.11;64.71
13080;BME280;6606;49.154;9.280;2024-01-10T10:20:03;100694.56;;;-0.01;63.68
13080;BME280;6606;49.154;9.280;2024-01-10T10:22:58;100692.75;;;-0.23;66.27
13080;BME280;6606;49.154;9.280;2024-01-10T10:25:43;100688.41;;;-0.21;66.02
13080;BME280;6606;49.154;9.280;2024-01-10T10:28:28;100692.75;;;-0.23;65.36
13080;BME280;6606;49.154;9.280;2024-01-10T10:31:12;100692.78;;;-0.18;64.27
13080;BME280;6606;49.154;9.280;2024-01-10T10:33:55;100688.28;;;-0.41;64.82
13080;BME280;6606;49.154;9.280;2024-01-10T10:36:38;100682.31;;;-0.23;65.46
13080;BME280;6606;49.154;9.280;2024-01-10T10:39:20;100680.53;;;-0.27;64.77
13080;BME280;6606;49.154;9.280;2024-01-10T10:42:06;100685.81;;;-0.16;66.57
13080;BME280;6606;49.154;9.280;2024-01-10T10:44:49;100683.22;;;-0.12;66.21
13080;BME280;6606;49.154;9.280;2024-01-10T10:47:35;100685.81;;;-0.18;65.58
13080;BME280;6606;49.154;9.280;2024-01-10T10:50:21;100687.53;;;-0.26;65.25
13080;BME280;6606;49.154;9.280;2024-01-10T10:53:03;100680.50;;;-0.33;66.70
13080;BME280;6606;49.154;9.280;2024-01-10T10:55:46;100675.44;;;0.00;65.02
13080;BME280;6606;49.154;9.280;2024-01-10T10:58:31;100673.72;;;0.12;63.80
13080;BME280;6606;49.154;9.280;2024-01-10T11:01:15;100676.22;;;-0.19;65.99
13080;BME280;6606;49.154;9.280;2024-01-10T11:03:57;100677.09;;;-0.23;65.87
13080;BME280;6606;49.154;9.280;2024-01-10T11:06:41;100675.31;;;-0.30;67.21
13080;BME280;6606;49.154;9.280;2024-01-10T11:09:23;100675.38;;;-0.15;64.21
13080;BME280;6606;49.154;9.280;2024-01-10T11:12:29;100665.84;;;-0.07;63.07
13080;BME280;6606;49.154;9.280;2024-01-10T11:15:29;100671.03;;;-0.16;66.41
13080;BME280;6606;49.154;9.280;2024-01-10T11:18:30;100678.81;;;-0.28;63.16
13080;BME280;6606;49.154;9.280;2024-01-10T11:21:20;100679.75;;;-0.11;64.16
13080;BME280;6606;49.154;9.280;2024-01-10T11:24:07;100676.34;;;0.03;64.88
13080;BME280;6606;49.154;9.280;2024-01-10T11:26:49;100681.41;;;-0.25;63.33
13080;BME280;6606;49.154;9.280;2024-01-10T11:29:31;100686.69;;;-0.11;64.21
13080;BME280;6606;49.154;9.280;2024-01-10T11:32:15;100677.19;;;0.05;62.68
13080;BME280;6606;49.154;9.280;2024-01-10T11:34:57;100671.16;;;0.29;62.15
13080;BME280;6606;49.154;9.280;2024-01-10T11:37:41;100666.88;;;0.48;61.52
13080;BME280;6606;49.154;9.280;2024-01-10T11:40:45;100665.09;;;0.43;61.58
13080;BME280;6606;49.154;9.280;2024-01-10T11:43:27;100671.19;;;0.47;62.94
13080;BME280;6606;49.154;9.280;2024-01-10T11:46:09;100666.88;;;0.54;60.22
13080;BME280;6606;49.154;9.280;2024-01-10T11:48:52;100659.88;;;0.43;61.21
13080;BME280;6606;49.154;9.280;2024-01-10T11:51:35;100662.53;;;0.59;59.25
13080;BME280;6606;49.154;9.280;2024-01-10T11:54:38;100653.78;;;0.29;61.00
13080;BME280;6606;49.154;9.280;2024-01-10T11:57:23;100653.72;;;0.14;61.50
13080;BME280;6606;49.154;9.280;2024-01-10T12:00:08;100652.00;;;0.31;61.57
13080;BME280;6606;49.154;9.280;2024-01-10T12:02:50;100645.03;;;0.24;63.43
13080;BME280;6606;49.154;9.280;2024-01-10T12:05:32;100651.16;;;0.35;62.27
13080;BME280;6606;49.154;9.280;2024-01-10T12:08:14;100657.25;;;0.27;62.53
13080;BME280;6606;49.154;9.280;2024-01-10T12:11:01;100646.72;;;0.04;65.80
13080;BME280;6606;49.154;9.280;2024-01-10T12:13:45;100644.97;;;0.01;65.65
13080;BME280;6606;49.154;9.280;2024-01-10T12:16:26;100652.84;;;0.18;65.55
13080;BME280;6606;49.154;9.280;2024-01-10T12:19:09;100650.28;;;0.38;64.49
13080;BME280;6606;49.154;9.280;2024-01-10T12:21:51;100642.47;;;0.39;62.97
13080;BME280;6606;49.154;9.280;2024-01-10T12:24:33;100645.03;;;0.22;63.92
13080;BME280;6606;49.154;9.280;2024-01-10T12:27:16;100636.34;;;0.27;63.49
13080;BME280;6606;49.154;9.280;2024-01-10T12:30:01;100650.22;;;0.15;66.46
13080;BME280;6606;49.154;9.280;2024-01-10T12:32:44;100642.44;;;0.21;68.47
13080;BME280;6606;49.154;9.280;2024-01-10T12:35:27;100645.97;;;0.51;65.62
13080;BME280;6606;49.154;9.280;2024-01-10T12:38:10;100636.38;;;0.66;63.51
13080;BME280;6606;49.154;9.280;2024-01-10T12:40:52;100638.97;;;0.89;62.25
13080;BME280;6606;49.154;9.280;2024-01-10T12:43:35;100635.50;;;0.78;61.80
13080;BME280;6606;49.154;9.280;2024-01-10T12:46:18;100639.84;;;0.55;62.50
13080;BME280;6606;49.154;9.280;2024-01-10T12:49:01;100637.25;;;0.65;63.61
13080;BME280;6606;49.154;9.280;2024-01-10T12:51:43;100649.47;;;0.53;64.93
13080;BME280;6606;49.154;9.280;2024-01-10T12:54:25;100638.09;;;0.49;64.92
13080;BME280;6606;49.154;9.280;2024-01-10T12:57:06;100645.09;;;0.52;65.28
13080;BME280;6606;49.154;9.280;2024-01-10T12:59:48;100652.94;;;0.62;62.93
13080;BME280;6606;49.154;9.280;2024-01-10T13:02:31;100653.78;;;0.60;64.52
13080;BME280;6606;49.154;9.280;2024-01-10T13:05:15;100646.81;;;0.43;65.22
13080;BME280;6606;49.154;9.280;2024-01-10T13:07:57;100645.97;;;0.54;64.54
13080;BME280;6606;49.154;9.280;2024-01-10T13:10:38;100644.19;;;0.34;65.50
13080;BME280;6606;49.154;9.280;2024-01-10T13:13:20;100640.72;;;0.29;67.01
13080;BME280;6606;49.154;9.280;2024-01-10T13:16:03;100638.09;;;0.35;65.88
13080;BME280;6606;49.154;9.280;2024-01-10T13:18:46;100638.94;;;0.28;68.20
13080;BME280;6606;49.154;9.280;2024-01-10T13:21:28;100646.78;;;0.31;66.90
13080;BME280;6606;49.154;9.280;2024-01-10T13:24:10;100637.19;;;0.18;69.82
13080;BME280;6606;49.154;9.280;2024-01-10T13:26:51;100642.44;;;0.24;70.10
13080;BME280;6606;49.154;9.280;2024-01-10T13:29:33;100645.94;;;0.35;66.88
13080;BME280;6606;49.154;9.280;2024-01-10T13:32:17;100647.69;;;0.49;64.92
13080;BME280;6606;49.154;9.280;2024-01-10T13:35:00;100651.19;;;0.54;65.40
13080;BME280;6606;49.154;9.280;2024-01-10T13:37:41;100648.56;;;0.46;68.25
13080;BME280;6606;49.154;9.280;2024-01-10T13:40:23;100649.47;;;0.63;68.31
13080;BME280;6606;49.154;9.280;2024-01-10T13:43:07;100642.50;;;0.64;67.70
13080;BME280;6606;49.154;9.280;2024-01-10T13:45:49;100640.72;;;0.60;70.95
13080;BME280;6606;49.154;9.280;2024-01-10T13:48:30;100639.00;;;0.62;67.13
13080;BME280;6606;49.154;9.280;2024-01-10T13:51:13;100639.84;;;0.76;66.59
13080;BME280;6606;49.154;9.280;2024-01-10T13:53:55;100636.38;;;0.70;67.35
13080;BME280;6606;49.154;9.280;2024-01-10T13:56:37;100635.50;;;0.57;68.49
13080;BME280;6606;49.154;9.280;2024-01-10T13:59:20;100652.88;;;0.33;71.21
13080;BME280;6606;49.154;9.280;2024-01-10T14:02:04;100649.44;;;0.50;71.49
13080;BME280;6606;49.154;9.280;2024-01-10T14:04:46;100653.78;;;0.41;71.01
13080;BME280;6606;49.154;9.280;2024-01-10T14:07:29;100649.44;;;0.37;71.46
13080;BME280;6606;49.154;9.280;2024-01-10T14:10:11;100644.19;;;0.40;73.10
13080;BME280;6606;49.154;9.280;2024-01-10T14:12:53;100645.94;;;0.40;72.44
13080;BME280;6606;49.154;9.280;2024-01-10T14:15:35;100641.59;;;0.43;72.12
13080;BME280;6606;49.154;9.280;2024-01-10T14:18:16;100641.53;;;0.20;74.78